sensor_id;sensor_type;location;lat;lon;timestamp;temperature;humidity
21678;DHT22;11000;50.360;7.582;2023-03-21T00:01:14;10.40;99.90
21678;DHT22;11000;50.360;7.582;2023-03-21T00:03:35;10.40;99.90
21678;DHT22;11000;50.360;7.582;2023-03-21T00:05:56;10.40;99.90
21678;DHT22;11000;50.360;7.582;2023-03-21T00:08:17;10.40;99.90
21678;DHT22;11000;50.360;7.582;2023-03-21T00:10:37;10.30;99.90
21678;DHT22;11000;50.360;7.582;2023-03-21T00:12:58;10.30;99.90
21678;DHT22;11000;50.360;7.582;2023-03-21T00:15:18;10.30;99.90
21678;DHT22;11000;50.360;7.582;2023-03-21T00:17:39;10.30;99.90
21678;DHT22;11000;50.360;7.582;2023-03-21T00:19:59;10.30;99.90
21678;DHT22;11000;50.360;7.582;2023-03-21T00:22:20;10.30;99.90
21678;DHT22;11000;50.360;7.582;2023-03-21T00:24:41;10.30;99.90
21678;DHT22;11000;50.360;7.582;2023-03-21T00:27:01;10.30;99.90
21678;DHT22;11000;50.360;7.582;2023-03-21T00:29:22;10.20;99.90
21678;DHT22;11000;50.360;7.582;2023-03-21T00:31:42;10.20;99.90
21678;DHT22;11000;50.360;7.582;2023-03-21T00:34:03;10.20;99.90
21678;DHT22;11000;50.360;7.582;2023-03-21T00:36:24;10.20;99.90
21678;DHT22;11000;50.360;7.582;2023-03-21T00:38:45;10.20;99.90
21678;DHT22;11000;50.360;7.582;2023-03-21T00:41:07;10.20;99.90
21678;DHT22;11000;50.360;7.582;2023-03-21T00:43:28;10.30;99.90
21678;DHT22;11000;50.360;7.582;2023-03-21T00:45:52;10.30;99.90
21678;DHT22;11000;50.360;7.582;2023-03-21T00:48:12;10.30;99.90
21678;DHT22;11000;50.360;7.582;2023-03-21T00:50:33;10.30;99.90
21678;DHT22;11000;50.360;7.582;2023-03-21T00:52:54;10.30;99.90
21678;DHT22;11000;50.360;7.582;2023-03-21T00:55:16;10.30;99.90
21678;DHT22;11000;50.360;7.582;2023-03-21T00:57:37;10.30;99.90
21678;DHT22;11000;50.360;7.582;2023-03-21T00:59:57;10.30;99.90
21678;DHT22;11000;50.360;7.582;2023-03-21T01:02:18;10.40;99.90
21678;DHT22;11000;50.360;7.582;2023-03-21T01:04:42;10.40;99.90
21678;DHT22;11000;50.360;7.582;2023-03-21T01:07:02;10.40;99.90
21678;DHT22;11000;50.360;7.582;2023-03-21T01:09:23;10.30;99.90
21678;DHT22;11000;50.360;7.582;2023-03-21T01:11:44;10.30;99.90
21678;DHT22;11000;50.360;7.582;2023-03-21T01:14:06;10.30;99.90
21678;DHT22;11000;50.360;7.582;2023-03-21T01:16:27;10.30;99.90
21678;DHT22;11000;50.360;7.582;2023-03-21T01:18:48;10.30;99.90
21678;DHT22;11000;50.360;7.582;2023-03-21T01:21:13;10.30;99.90
21678;DHT22;11000;50.360;7.582;2023-03-21T01:23:34;10.30;99.90
21678;DHT22;11000;50.360;7.582;2023-03-21T01:25:55;10.30;99.90
21678;DHT22;11000;50.360;7.582;2023-03-21T01:28:16;10.30;99.90
21678;DHT22;11000;50.360;7.582;2023-03-21T01:30:36;10.30;99.90
21678;DHT22;11000;50.360;7.582;2023-03-21T01:32:57;10.30;99.90
21678;DHT22;11000;50.360;7.582;2023-03-21T01:35:18;10.30;99.90
21678;DHT22;11000;50.360;7.582;2023-03-21T01:37:38;10.20;99.90
21678;DHT22;11000;50.360;7.582;2023-03-21T01:39:59;10.20;99.90
21678;DHT22;11000;50.360;7.582;2023-03-21T01:42:19;10.20;99.90
21678;DHT22;11000;50.360;7.582;2023-03-21T01:45:02;10.20;99.90
21678;DHT22;11000;50.360;7.582;2023-03-21T01:47:24;10.20;99.90
21678;DHT22;11000;50.360;7.582;2023-03-21T01:49:51;10.20;99.90
21678;DHT22;11000;50.360;7.582;2023-03-21T01:52:33;10.30;99.90
21678;DHT22;11000;50.360;7.582;2023-03-21T01:54:57;10.30;99.90
21678;DHT22;11000;50.360;7.582;2023-03-21T01:57:22;10.30;99.90
21678;DHT22;11000;50.360;7.582;2023-03-21T01:59:52;10.20;99.90
21678;DHT22;11000;50.360;7.582;2023-03-21T02:02:24;10.20;99.90
21678;DHT22;11000;50.360;7.582;2023-03-21T02:04:46;10.30;99.90
21678;DHT22;11000;50.360;7.582;2023-03-21T02:07:15;10.20;99.90
21678;DHT22;11000;50.360;7.582;2023-03-21T02:09:40;10.20;99.90
21678;DHT22;11000;50.360;7.582;2023-03-21T02:12:01;10.20;99.90
21678;DHT22;11000;50.360;7.582;2023-03-21T02:14:22;10.20;99.90
21678;DHT22;11000;50.360;7.582;2023-03-21T02:19:28;10.20;99.90
21678;DHT22;11000;50.360;7.582;2023-03-21T02:22:28;10.20;99.90
21678;DHT22;11000;50.360;7.582;2023-03-21T02:24:54;10.20;99.90
21678;DHT22;11000;50.360;7.582;2023-03-21T02:27:23;10.20;99.90
21678;DHT22;11000;50.360;7.582;2023-03-21T02:36:16;10.20;99.90
21678;DHT22;11000;50.360;7.582;2023-03-21T02:41:10;10.20;99.90
21678;DHT22;11000;50.360;7.582;2023-03-21T02:43:58;10.20;99.90
21678;DHT22;11000;50.360;7.582;2023-03-21T02:46:37;10.20;99.90
21678;DHT22;11000;50.360;7.582;2023-03-21T02:49:25;10.20;99.90
21678;DHT22;11000;50.360;7.582;2023-03-21T02:51:48;10.30;99.90
21678;DHT22;11000;50.360;7.582;2023-03-21T02:54:14;10.30;99.90
21678;DHT22;11000;50.360;7.582;2023-03-21T02:56:36;10.30;99.90
21678;DHT22;11000;50.360;7.582;2023-03-21T02:58:56;10.30;99.90
21678;DHT22;11000;50.360;7.582;2023-03-21T03:01:17;10.20;99.90
21678;DHT22;11000;50.360;7.582;2023-03-21T03:03:38;10.20;99.90
21678;DHT22;11000;50.360;7.582;2023-03-21T03:05:59;10.20;99.90
21678;DHT22;11000;50.360;7.582;2023-03-21T03:16:20;10.20;99.90
21678;DHT22;11000;50.360;7.582;2023-03-21T03:18:55;10.20;99.90
21678;DHT22;11000;50.360;7.582;2023-03-21T03:21:46;10.20;99.90
21678;DHT22;11000;50.360;7.582;2023-03-21T03:24:16;10.20;99.90
21678;DHT22;11000;50.360;7.582;2023-03-21T03:26:52;10.10;99.90
21678;DHT22;11000;50.360;7.582;2023-03-21T03:29:17;10.20;99.90
21678;DHT22;11000;50.360;7.582;2023-03-21T03:31:50;10.20;99.90
21678;DHT22;11000;50.360;7.582;2023-03-21T03:34:15;10.20;99.90
21678;DHT22;11000;50.360;7.582;2023-03-21T03:36:43;10.10;99.90
21678;DHT22;11000;50.360;7.582;2023-03-21T03:39:09;10.10;99.90
21678;DHT22;11000;50.360;7.582;2023-03-21T03:41:34;10.10;99.90
21678;DHT22;11000;50.360;7.582;2023-03-21T03:43:58;10.10;99.90
21678;DHT22;11000;50.360;7.582;2023-03-21T03:46:35;10.10;99.90
21678;DHT22;11000;50.360;7.582;2023-03-21T03:49:04;10.10;99.90
21678;DHT22;11000;50.360;7.582;2023-03-21T03:51:35;10.10;99.90
21678;DHT22;11000;50.360;7.582;2023-03-21T03:54:12;10.10;99.90
21678;DHT22;11000;50.360;7.582;2023-03-21T03:56:37;10.10;99.90
21678;DHT22;11000;50.360;7.582;2023-03-21T03:59:00;10.10;99.90
21678;DHT22;11000;50.360;7.582;2023-03-21T04:01:23;10.10;99.90
21678;DHT22;11000;50.360;7.582;2023-03-21T04:03:46;10.10;99.90
21678;DHT22;11000;50.360;7.582;2023-03-21T04:06:08;10.10;99.90
21678;DHT22;11000;50.360;7.582;2023-03-21T04:08:29;10.10;99.90
21678;DHT22;11000;50.360;7.582;2023-03-21T04:10:49;10.10;99.90
21678;DHT22;11000;50.360;7.582;2023-03-21T04:13:10;10.00;99.90
21678;DHT22;11000;50.360;7.582;2023-03-21T04:15:31;10.10;99.90
21678;DHT22;11000;50.360;7.582;2023-03-21T04:17:52;10.10;99.90
21678;DHT22;11000;50.360;7.582;2023-03-21T04:20:13;10.10;99.90
21678;DHT22;11000;50.360;7.582;2023-03-21T04:22:34;10.10;99.90
21678;DHT22;11000;50.360;7.582;2023-03-21T04:24:54;10.10;99.90
21678;DHT22;11000;50.360;7.582;2023-03-21T04:27:15;10.10;99.90
21678;DHT22;11000;50.360;7.582;2023-03-21T04:29:36;10.10;99.90
21678;DHT22;11000;50.360;7.582;2023-03-21T04:31:56;10.10;99.90
21678;DHT22;11000;50.360;7.582;2023-03-21T04:34:17;10.10;99.90
21678;DHT22;11000;50.360;7.582;2023-03-21T04:36:38;10.00;99.90
21678;DHT22;11000;50.360;7.582;2023-03-21T04:39:02;10.00;99.90
21678;DHT22;11000;50.360;7.582;2023-03-21T04:41:22;10.10;99.90
21678;DHT22;11000;50.360;7.582;2023-03-21T04:43:43;10.00;99.90
21678;DHT22;11000;50.360;7.582;2023-03-21T04:46:04;10.10;99.90
21678;DHT22;11000;50.360;7.582;2023-03-21T04:48:25;10.00;99.90
21678;DHT22;11000;50.360;7.582;2023-03-21T04:50:46;10.00;99.90
21678;DHT22;11000;50.360;7.582;2023-03-21T04:53:06;10.00;99.90
21678;DHT22;11000;50.360;7.582;2023-03-21T04:55:27;10.00;99.90
21678;DHT22;11000;50.360;7.582;2023-03-21T04:57:48;10.00;99.90
21678;DHT22;11000;50.360;7.582;2023-03-21T05:00:10;10.00;99.90
21678;DHT22;11000;50.360;7.582;2023-03-21T05:02:32;10.00;99.90
21678;DHT22;11000;50.360;7.582;2023-03-21T05:04:53;10.00;99.90
21678;DHT22;11000;50.360;7.582;2023-03-21T05:07:13;10.00;99.90
21678;DHT22;11000;50.360;7.582;2023-03-21T05:09:34;10.00;99.90
21678;DHT22;11000;50.360;7.582;2023-03-21T05:11:55;10.00;99.90
21678;DHT22;11000;50.360;7.582;2023-03-21T05:14:19;10.00;99.90
21678;DHT22;11000;50.360;7.582;2023-03-21T05:16:42;10.00;99.90
21678;DHT22;11000;50.360;7.582;2023-03-21T05:19:12;10.00;99.90
21678;DHT22;11000;50.360;7.582;2023-03-21T05:21:33;10.10;99.90
21678;DHT22;11000;50.360;7.582;2023-03-21T05:24:00;10.10;99.90
21678;DHT22;11000;50.360;7.582;2023-03-21T05:26:23;10.00;99.90
21678;DHT22;11000;50.360;7.582;2023-03-21T05:28:44;10.00;99.90
21678;DHT22;11000;50.360;7.582;2023-03-21T05:31:05;10.00;99.90
21678;DHT22;11000;50.360;7.582;2023-03-21T05:33:26;10.00;99.90
21678;DHT22;11000;50.360;7.582;2023-03-21T05:35:49;10.00;99.90
21678;DHT22;11000;50.360;7.582;2023-03-21T05:38:10;10.00;99.90
21678;DHT22;11000;50.360;7.582;2023-03-21T05:40:31;10.10;99.90
21678;DHT22;11000;50.360;7.582;2023-03-21T05:42:51;10.00;99.90
21678;DHT22;11000;50.360;7.582;2023-03-21T05:45:12;10.00;99.90
21678;DHT22;11000;50.360;7.582;2023-03-21T05:47:32;10.10;99.90
21678;DHT22;11000;50.360;7.582;2023-03-21T05:49:53;10.00;99.90
21678;DHT22;11000;50.360;7.582;2023-03-21T05:52:14;10.00;99.90
21678;DHT22;11000;50.360;7.582;2023-03-21T05:54:35;10.10;99.90
21678;DHT22;11000;50.360;7.582;2023-03-21T05:56:55;10.10;99.90
21678;DHT22;11000;50.360;7.582;2023-03-21T05:59:16;10.10;99.90
21678;DHT22;11000;50.360;7.582;2023-03-21T06:01:36;10.10;99.90
21678;DHT22;11000;50.360;7.582;2023-03-21T06:03:57;10.20;99.90
21678;DHT22;11000;50.360;7.582;2023-03-21T06:06:17;10.20;99.90
21678;DHT22;11000;50.360;7.582;2023-03-21T06:08:38;10.20;99.90
21678;DHT22;11000;50.360;7.582;2023-03-21T06:10:58;10.20;99.90
21678;DHT22;11000;50.360;7.582;2023-03-21T06:13:19;10.20;99.90
21678;DHT22;11000;50.360;7.582;2023-03-21T06:15:39;10.20;99.90
21678;DHT22;11000;50.360;7.582;2023-03-21T06:18:00;10.20;99.90
21678;DHT22;11000;50.360;7.582;2023-03-21T06:20:21;10.20;99.90
21678;DHT22;11000;50.360;7.582;2023-03-21T06:22:41;10.20;99.90
21678;DHT22;11000;50.360;7.582;2023-03-21T06:25:02;10.20;99.90
21678;DHT22;11000;50.360;7.582;2023-03-21T06:27:23;10.30;99.90
21678;DHT22;11000;50.360;7.582;2023-03-21T06:29:44;10.30;99.90
21678;DHT22;11000;50.360;7.582;2023-03-21T06:32:05;10.30;99.90
21678;DHT22;11000;50.360;7.582;2023-03-21T06:34:26;10.30;99.90
21678;DHT22;11000;50.360;7.582;2023-03-21T06:36:47;10.30;99.90
21678;DHT22;11000;50.360;7.582;2023-03-21T06:39:08;10.30;99.90
21678;DHT22;11000;50.360;7.582;2023-03-21T06:41:29;10.40;99.90
21678;DHT22;11000;50.360;7.582;2023-03-21T06:43:50;10.40;99.90
21678;DHT22;11000;50.360;7.582;2023-03-21T06:46:11;10.40;99.90
21678;DHT22;11000;50.360;7.582;2023-03-21T06:48:31;10.40;99.90
21678;DHT22;11000;50.360;7.582;2023-03-21T06:50:53;10.40;99.90
21678;DHT22;11000;50.360;7.582;2023-03-21T06:53:13;10.40;99.90
21678;DHT22;11000;50.360;7.582;2023-03-21T06:55:34;10.40;99.90
21678;DHT22;11000;50.360;7.582;2023-03-21T06:57:55;10.40;99.90
21678;DHT22;11000;50.360;7.582;2023-03-21T07:00:17;10.40;99.90
21678;DHT22;11000;50.360;7.582;2023-03-21T07:02:37;10.40;99.90
21678;DHT22;11000;50.360;7.582;2023-03-21T07:04:58;10.40;99.90
21678;DHT22;11000;50.360;7.582;2023-03-21T07:07:19;10.40;99.90
21678;DHT22;11000;50.360;7.582;2023-03-21T07:09:39;10.40;99.90
21678;DHT22;11000;50.360;7.582;2023-03-21T07:12:00;10.50;99.90
21678;DHT22;11000;50.360;7.582;2023-03-21T07:14:21;10.40;99.90
21678;DHT22;11000;50.360;7.582;2023-03-21T07:16:43;10.50;99.90
21678;DHT22;11000;50.360;7.582;2023-03-21T07:19:03;10.60;99.90
21678;DHT22;11000;50.360;7.582;2023-03-21T07:21:24;10.60;99.90
21678;DHT22;11000;50.360;7.582;2023-03-21T07:23:44;10.60;99.90
21678;DHT22;11000;50.360;7.582;2023-03-21T07:26:06;10.60;99.90
21678;DHT22;11000;50.360;7.582;2023-03-21T07:28:27;10.70;99.90
21678;DHT22;11000;50.360;7.582;2023-03-21T07:30:53;10.70;99.90
21678;DHT22;11000;50.360;7.582;2023-03-21T07:33:14;10.80;99.90
21678;DHT22;11000;50.360;7.582;2023-03-21T07:35:35;10.80;99.90
21678;DHT22;11000;50.360;7.582;2023-03-21T07:37:56;10.90;99.90
21678;DHT22;11000;50.360;7.582;2023-03-21T07:40:17;10.90;99.90
21678;DHT22;11000;50.360;7.582;2023-03-21T07:42:41;11.00;99.90
21678;DHT22;11000;50.360;7.582;2023-03-21T07:45:02;11.00;99.90
21678;DHT22;11000;50.360;7.582;2023-03-21T07:47:24;11.00;99.90
21678;DHT22;11000;50.360;7.582;2023-03-21T07:49:44;11.00;99.90
21678;DHT22;11000;50.360;7.582;2023-03-21T07:52:05;10.90;99.90
21678;DHT22;11000;50.360;7.582;2023-03-21T07:54:27;11.00;99.90
21678;DHT22;11000;50.360;7.582;2023-03-21T07:56:48;11.00;99.90
21678;DHT22;11000;50.360;7.582;2023-03-21T07:59:08;11.00;99.90
21678;DHT22;11000;50.360;7.582;2023-03-21T08:01:29;11.00;99.90
21678;DHT22;11000;50.360;7.582;2023-03-21T08:03:50;11.00;99.90
21678;DHT22;11000;50.360;7.582;2023-03-21T08:06:13;11.00;99.90
21678;DHT22;11000;50.360;7.582;2023-03-21T08:08:34;10.90;99.90
21678;DHT22;11000;50.360;7.582;2023-03-21T08:10:55;10.90;99.90
21678;DHT22;11000;50.360;7.582;2023-03-21T08:13:19;10.90;99.90
21678;DHT22;11000;50.360;7.582;2023-03-21T08:15:40;11.00;99.90
21678;DHT22;11000;50.360;7.582;2023-03-21T08:18:01;11.00;99.90
21678;DHT22;11000;50.360;7.582;2023-03-21T08:20:22;10.90;99.90
21678;DHT22;11000;50.360;7.582;2023-03-21T08:22:43;10.90;99.90
21678;DHT22;11000;50.360;7.582;2023-03-21T08:25:04;10.90;99.90
21678;DHT22;11000;50.360;7.582;2023-03-21T08:27:26;10.90;99.90
21678;DHT22;11000;50.360;7.582;2023-03-21T08:29:46;10.90;99.90
21678;DHT22;11000;50.360;7.582;2023-03-21T08:32:07;10.90;99.90
21678;DHT22;11000;50.360;7.582;2023-03-21T08:34:28;10.90;99.90
21678;DHT22;11000;50.360;7.582;2023-03-21T08:36:48;10.90;99.90
21678;DHT22;11000;50.360;7.582;2023-03-21T08:39:09;10.90;99.90
21678;DHT22;11000;50.360;7.582;2023-03-21T08:41:35;10.90;99.90
21678;DHT22;11000;50.360;7.582;2023-03-21T08:43:55;10.90;99.90
21678;DHT22;11000;50.360;7.582;2023-03-21T08:46:16;10.90;99.90
21678;DHT22;11000;50.360;7.582;2023-03-21T08:48:36;10.90;99.90
21678;DHT22;11000;50.360;7.582;2023-03-21T08:51:00;10.90;99.90
21678;DHT22;11000;50.360;7.582;2023-03-21T08:53:21;10.90;99.90
21678;DHT22;11000;50.360;7.582;2023-03-21T08:55:42;10.80;99.90
21678;DHT22;11000;50.360;7.582;2023-03-21T08:58:04;10.80;99.90
21678;DHT22;11000;50.360;7.582;2023-03-21T09:00:25;10.80;99.90
21678;DHT22;11000;50.360;7.582;2023-03-21T09:02:48;10.80;99.90
21678;DHT22;11000;50.360;7.582;2023-03-21T09:05:11;10.80;99.90
21678;DHT22;11000;50.360;7.582;2023-03-21T09:07:32;10.70;99.90
21678;DHT22;11000;50.360;7.582;2023-03-21T09:09:55;10.70;99.90
21678;DHT22;11000;50.360;7.582;2023-03-21T09:12:16;10.80;99.90
21678;DHT22;11000;50.360;7.582;2023-03-21T09:14:36;10.70;99.90
21678;DHT22;11000;50.360;7.582;2023-03-21T09:16:57;10.80;99.90
21678;DHT22;11000;50.360;7.582;2023-03-21T09:19:17;10.80;99.90
21678;DHT22;11000;50.360;7.582;2023-03-21T09:21:38;10.80;99.90
21678;DHT22;11000;50.360;7.582;2023-03-21T09:23:59;10.80;99.90
21678;DHT22;11000;50.360;7.582;2023-03-21T09:26:20;10.70;99.90
21678;DHT22;11000;50.360;7.582;2023-03-21T09:28:41;10.70;99.90
21678;DHT22;11000;50.360;7.582;2023-03-21T09:31:02;10.60;99.90
21678;DHT22;11000;50.360;7.582;2023-03-21T09:33:23;10.50;99.90
21678;DHT22;11000;50.360;7.582;2023-03-21T09:35:45;10.50;99.90
21678;DHT22;11000;50.360;7.582;2023-03-21T09:38:05;10.60;99.90
21678;DHT22;11000;50.360;7.582;2023-03-21T09:43:35;10.70;99.90
21678;DHT22;11000;50.360;7.582;2023-03-21T09:49:05;10.80;99.90
21678;DHT22;11000;50.360;7.582;2023-03-21T09:51:33;10.80;99.90
21678;DHT22;11000;50.360;7.582;2023-03-21T09:53:56;10.80;99.90
21678;DHT22;11000;50.360;7.582;2023-03-21T09:56:20;10.80;99.90
21678;DHT22;11000;50.360;7.582;2023-03-21T09:58:49;10.80;99.90
21678;DHT22;11000;50.360;7.582;2023-03-21T10:01:30;10.80;99.90
21678;DHT22;11000;50.360;7.582;2023-03-21T10:04:04;10.80;99.90
21678;DHT22;11000;50.360;7.582;2023-03-21T10:06:26;10.90;99.90
21678;DHT22;11000;50.360;7.582;2023-03-21T10:08:49;10.90;99.90
21678;DHT22;11000;50.360;7.582;2023-03-21T10:11:16;10.90;99.90
21678;DHT22;11000;50.360;7.582;2023-03-21T10:13:43;10.90;99.90
21678;DHT22;11000;50.360;7.582;2023-03-21T10:16:20;10.90;99.90
21678;DHT22;11000;50.360;7.582;2023-03-21T10:18:43;10.90;99.90
21678;DHT22;11000;50.360;7.582;2023-03-21T10:21:04;10.90;99.90
21678;DHT22;11000;50.360;7.582;2023-03-21T10:23:27;10.90;99.90
21678;DHT22;11000;50.360;7.582;2023-03-21T10:25:55;10.90;99.90
21678;DHT22;11000;50.360;7.582;2023-03-21T10:28:20;10.80;99.90
21678;DHT22;11000;50.360;7.582;2023-03-21T10:30:53;10.80;99.90
21678;DHT22;11000;50.360;7.582;2023-03-21T10:33:18;10.80;99.90
21678;DHT22;11000;50.360;7.582;2023-03-21T10:35:42;10.80;99.90
21678;DHT22;11000;50.360;7.582;2023-03-21T10:38:05;10.70;99.90
21678;DHT22;11000;50.360;7.582;2023-03-21T10:40:26;10.70;99.90
21678;DHT22;11000;50.360;7.582;2023-03-21T10:42:47;10.70;99.90
21678;DHT22;11000;50.360;7.582;2023-03-21T10:45:14;10.80;99.90
21678;DHT22;11000;50.360;7.582;2023-03-21T10:47:36;10.80;99.90
21678;DHT22;11000;50.360;7.582;2023-03-21T10:50:10;10.60;99.90
21678;DHT22;11000;50.360;7.582;2023-03-21T10:52:32;10.50;99.90
21678;DHT22;11000;50.360;7.582;2023-03-21T10:55:27;10.60;99.90
21678;DHT22;11000;50.360;7.582;2023-03-21T10:57:54;10.60;99.90
21678;DHT22;11000;50.360;7.582;2023-03-21T11:00:22;10.50;99.90
21678;DHT22;11000;50.360;7.582;2023-03-21T11:02:47;10.60;99.90
21678;DHT22;11000;50.360;7.582;2023-03-21T11:05:35;10.40;99.90
21678;DHT22;11000;50.360;7.582;2023-03-21T11:08:10;10.40;99.90
21678;DHT22;11000;50.360;7.582;2023-03-21T11:10:36;10.60;99.90
21678;DHT22;11000;50.360;7.582;2023-03-21T11:13:02;10.70;99.90
21678;DHT22;11000;50.360;7.582;2023-03-21T11:15:33;10.60;99.90
21678;DHT22;11000;50.360;7.582;2023-03-21T11:17:58;10.60;99.90
21678;DHT22;11000;50.360;7.582;2023-03-21T11:20:20;10.60;99.90
21678;DHT22;11000;50.360;7.582;2023-03-21T11:22:42;10.60;99.90
21678;DHT22;11000;50.360;7.582;2023-03-21T11:25:06;10.80;99.90
21678;DHT22;11000;50.360;7.582;2023-03-21T11:27:28;10.80;99.90
21678;DHT22;11000;50.360;7.582;2023-03-21T11:29:50;10.70;99.90
21678;DHT22;11000;50.360;7.582;2023-03-21T11:32:40;10.70;99.90
21678;DHT22;11000;50.360;7.582;2023-03-21T11:35:03;10.80;99.90
21678;DHT22;11000;50.360;7.582;2023-03-21T11:39:47;11.00;99.90
21678;DHT22;11000;50.360;7.582;2023-03-21T11:42:31;10.90;99.90
21678;DHT22;11000;50.360;7.582;2023-03-21T11:45:01;10.80;99.90
21678;DHT22;11000;50.360;7.582;2023-03-21T11:47:23;10.80;99.90
21678;DHT22;11000;50.360;7.582;2023-03-21T11:49:44;10.90;99.90
21678;DHT22;11000;50.360;7.582;2023-03-21T11:52:35;10.90;99.90
21678;DHT22;11000;50.360;7.582;2023-03-21T11:59:51;10.90;99.90
21678;DHT22;11000;50.360;7.582;2023-03-21T12:05:25;10.90;99.90
21678;DHT22;11000;50.360;7.582;2023-03-21T12:08:09;10.90;99.90
21678;DHT22;11000;50.360;7.582;2023-03-21T12:11:22;10.90;99.90
21678;DHT22;11000;50.360;7.582;2023-03-21T12:19:33;10.80;99.90
21678;DHT22;11000;50.360;7.582;2023-03-21T12:24:27;10.90;99.90
21678;DHT22;11000;50.360;7.582;2023-03-21T12:27:02;10.80;99.90
21678;DHT22;11000;50.360;7.582;2023-03-21T12:32:22;10.80;99.90
21678;DHT22;11000;50.360;7.582;2023-03-21T12:40:25;10.70;99.90
21678;DHT22;11000;50.360;7.582;2023-03-21T12:45:41;10.80;99.90
21678;DHT22;11000;50.360;7.582;2023-03-21T12:48:27;10.90;99.90
21678;DHT22;11000;50.360;7.582;2023-03-21T12:50:51;10.90;99.90
21678;DHT22;11000;50.360;7.582;2023-03-21T12:53:42;10.90;99.90
21678;DHT22;11000;50.360;7.582;2023-03-21T12:56:08;10.90;99.90
21678;DHT22;11000;50.360;7.582;2023-03-21T12:58:30;11.00;99.90
21678;DHT22;11000;50.360;7.582;2023-03-21T13:01:00;11.00;99.90
21678;DHT22;11000;50.360;7.582;2023-03-21T13:03:30;11.00;99.90
21678;DHT22;11000;50.360;7.582;2023-03-21T13:06:00;11.10;99.90
21678;DHT22;11000;50.360;7.582;2023-03-21T13:08:34;10.90;99.90
21678;DHT22;11000;50.360;7.582;2023-03-21T13:10:57;10.80;99.90
21678;DHT22;11000;50.360;7.582;2023-03-21T13:13:32;10.80;99.90
21678;DHT22;11000;50.360;7.582;2023-03-21T13:26:45;10.90;99.90
21678;DHT22;11000;50.360;7.582;2023-03-21T13:29:31;10.90;99.90
21678;DHT22;11000;50.360;7.582;2023-03-21T13:32:05;10.90;99.90
21678;DHT22;11000;50.360;7.582;2023-03-21T13:34:26;10.90;99.90
21678;DHT22;11000;50.360;7.582;2023-03-21T13:36:48;10.90;99.90
21678;DHT22;11000;50.360;7.582;2023-03-21T13:39:19;11.00;99.90
21678;DHT22;11000;50.360;7.582;2023-03-21T13:41:45;11.10;99.90
21678;DHT22;11000;50.360;7.582;2023-03-21T13:44:31;11.10;99.90
21678;DHT22;11000;50.360;7.582;2023-03-21T13:49:36;11.20;99.90
21678;DHT22;11000;50.360;7.582;2023-03-21T13:51:59;11.30;99.90
21678;DHT22;11000;50.360;7.582;2023-03-21T13:54:28;11.30;99.90
21678;DHT22;11000;50.360;7.582;2023-03-21T13:56:52;11.20;99.90
21678;DHT22;11000;50.360;7.582;2023-03-21T14:04:31;11.40;99.90
21678;DHT22;11000;50.360;7.582;2023-03-21T14:06:57;11.40;99.90
21678;DHT22;11000;50.360;7.582;2023-03-21T14:09:37;11.30;99.90
21678;DHT22;11000;50.360;7.582;2023-03-21T14:11:59;11.40;99.90
21678;DHT22;11000;50.360;7.582;2023-03-21T14:14:23;11.40;99.90
21678;DHT22;11000;50.360;7.582;2023-03-21T14:16:45;11.30;99.90
21678;DHT22;11000;50.360;7.582;2023-03-21T14:19:06;11.30;99.90
21678;DHT22;11000;50.360;7.582;2023-03-21T14:21:32;11.30;99.90
21678;DHT22;11000;50.360;7.582;2023-03-21T14:23:59;11.50;99.90
21678;DHT22;11000;50.360;7.582;2023-03-21T14:26:21;11.50;99.90
21678;DHT22;11000;50.360;7.582;2023-03-21T14:28:48;11.60;99.90
21678;DHT22;11000;50.360;7.582;2023-03-21T14:31:14;11.50;99.90
21678;DHT22;11000;50.360;7.582;2023-03-21T14:33:41;11.50;99.90
21678;DHT22;11000;50.360;7.582;2023-03-21T14:36:11;11.50;99.90
21678;DHT22;11000;50.360;7.582;2023-03-21T14:38:36;11.50;99.90
21678;DHT22;11000;50.360;7.582;2023-03-21T14:40:57;11.60;99.90
21678;DHT22;11000;50.360;7.582;2023-03-21T14:43:19;11.50;99.90
21678;DHT22;11000;50.360;7.582;2023-03-21T14:45:40;11.60;99.90
21678;DHT22;11000;50.360;7.582;2023-03-21T14:48:11;11.70;99.90
21678;DHT22;11000;50.360;7.582;2023-03-21T14:50:41;11.70;99.90
21678;DHT22;11000;50.360;7.582;2023-03-21T14:53:06;11.60;99.90
21678;DHT22;11000;50.360;7.582;2023-03-21T14:55:30;11.70;99.90
21678;DHT22;11000;50.360;7.582;2023-03-21T14:57:54;11.60;99.90
21678;DHT22;11000;50.360;7.582;2023-03-21T15:00:25;11.60;99.90
21678;DHT22;11000;50.360;7.582;2023-03-21T15:02:47;11.80;99.90
21678;DHT22;11000;50.360;7.582;2023-03-21T15:07:41;11.70;99.90
21678;DHT22;11000;50.360;7.582;2023-03-21T15:10:16;11.80;99.90
21678;DHT22;11000;50.360;7.582;2023-03-21T15:12:37;11.80;99.90
21678;DHT22;11000;50.360;7.582;2023-03-21T15:14:58;11.80;99.90
21678;DHT22;11000;50.360;7.582;2023-03-21T15:17:21;11.80;99.90
21678;DHT22;11000;50.360;7.582;2023-03-21T15:19:43;11.90;99.90
21678;DHT22;11000;50.360;7.582;2023-03-21T15:22:35;11.90;99.90
21678;DHT22;11000;50.360;7.582;2023-03-21T15:25:00;11.90;99.90
21678;DHT22;11000;50.360;7.582;2023-03-21T15:27:23;11.80;99.90
21678;DHT22;11000;50.360;7.582;2023-03-21T15:29:44;11.90;99.90
21678;DHT22;11000;50.360;7.582;2023-03-21T15:32:11;11.90;99.90
21678;DHT22;11000;50.360;7.582;2023-03-21T15:34:32;11.80;99.90
21678;DHT22;11000;50.360;7.582;2023-03-21T15:37:08;11.90;99.90
21678;DHT22;11000;50.360;7.582;2023-03-21T15:39:34;11.90;99.90
21678;DHT22;11000;50.360;7.582;2023-03-21T15:44:21;11.80;99.90
21678;DHT22;11000;50.360;7.582;2023-03-21T15:46:50;11.80;99.90
21678;DHT22;11000;50.360;7.582;2023-03-21T15:51:35;11.80;99.90
21678;DHT22;11000;50.360;7.582;2023-03-21T15:53:56;11.80;99.90
21678;DHT22;11000;50.360;7.582;2023-03-21T15:56:16;11.80;99.90
21678;DHT22;11000;50.360;7.582;2023-03-21T15:58:45;11.80;99.90
21678;DHT22;11000;50.360;7.582;2023-03-21T16:01:12;11.90;99.90
21678;DHT22;11000;50.360;7.582;2023-03-21T16:03:36;12.00;99.90
21678;DHT22;11000;50.360;7.582;2023-03-21T16:06:07;11.90;99.90
21678;DHT22;11000;50.360;7.582;2023-03-21T16:08:36;12.00;99.90
21678;DHT22;11000;50.360;7.582;2023-03-21T16:11:06;12.10;99.90
21678;DHT22;11000;50.360;7.582;2023-03-21T16:13:26;12.10;99.90
21678;DHT22;11000;50.360;7.582;2023-03-21T16:15:47;12.10;99.90
21678;DHT22;11000;50.360;7.582;2023-03-21T16:18:07;12.10;99.90
21678;DHT22;11000;50.360;7.582;2023-03-21T16:20:32;12.10;99.90
21678;DHT22;11000;50.360;7.582;2023-03-21T16:22:54;12.10;99.90
21678;DHT22;11000;50.360;7.582;2023-03-21T16:25:14;12.10;99.90
21678;DHT22;11000;50.360;7.582;2023-03-21T16:27:35;12.10;99.90
21678;DHT22;11000;50.360;7.582;2023-03-21T16:29:55;12.10;99.90
21678;DHT22;11000;50.360;7.582;2023-03-21T16:32:16;12.10;99.90
21678;DHT22;11000;50.360;7.582;2023-03-21T16:34:37;12.00;99.90